Time;durP1;ratioP1;P1;durP2;ratioP2;P2;SDS_P1;SDS_P2;PMS_P1;PMS_P2;Temp;Humidity;BMP_temperature;BMP_pressure;BME280_temperature;BME280_humidity;BME280_pressure;Samples;Min_cycle;Max_cycle;Signal;HPM_P1;HPM_P2
2022/06/11 00:01:36;;;;;;;9.60;2.50;;;15.80;99.90;;;;;;5018287;28;20060;-66
2022/06/11 00:04:14;;;;;;;9.75;3.25;;;15.70;99.90;;;;;;5034410;28;20502;-66
2022/06/11 00:06:42;;;;;;;10.13;3.35;;;;;;;;;;5035994;28;20037;-66
2022/06/11 00:09:08;;;;;;;10.05;3.30;;;15.70;99.90;;;;;;5035620;28;20045;-66
2022/06/11 00:11:35;;;;;;;9.50;3.50;;;15.60;99.90;;;;;;5035043;28;20048;-66
2022/06/11 00:14:01;;;;;;;11.57;5.07;;;15.60;99.90;;;;;;5033698;28;20055;-66
2022/06/11 00:16:27;;;;;;;13.93;3.13;;;15.60;99.90;;;;;;5035731;28;20042;-66
2022/06/11 00:18:55;;;;;;;9.65;3.33;;;15.60;99.90;;;;;;5032830;28;20038;-66
2022/06/11 00:21:24;;;;;;;12.48;3.65;;;15.60;99.90;;;;;;5035411;28;20042;-66
2022/06/11 00:23:50;;;;;;;7.82;3.15;;;15.60;99.90;;;;;;5033773;28;20044;-66
2022/06/11 00:26:16;;;;;;;10.98;3.40;;;15.60;99.90;;;;;;5033736;28;20037;-66
2022/06/11 00:28:42;;;;;;;14.50;4.63;;;15.50;99.90;;;;;;5035407;28;20073;-66
2022/06/11 00:31:09;;;;;;;7.63;3.08;;;15.50;99.90;;;;;;5033764;28;20099;-66
2022/06/11 00:33:36;;;;;;;9.73;3.15;;;15.50;99.90;;;;;;5033140;28;20046;-66
2022/06/11 00:36:05;;;;;;;8.98;3.42;;;;;;;;;;5034741;28;20042;-66
2022/06/11 00:38:30;;;;;;;8.95;3.25;;;15.60;99.90;;;;;;5033923;28;20552;-66
2022/06/11 00:40:56;;;;;;;11.23;3.47;;;15.50;99.90;;;;;;5033863;28;20041;-66
2022/06/11 00:43:25;;;;;;;9.50;3.20;;;15.30;99.90;;;;;;5035143;28;20073;-66
2022/06/11 00:45:50;;;;;;;11.25;3.17;;;15.40;99.90;;;;;;5033120;28;20081;-66
2022/06/11 00:48:31;;;;;;;10.43;3.28;;;15.30;99.90;;;;;;5034431;28;20076;-66
2022/06/11 00:51:12;;;;;;;12.20;3.80;;;15.30;99.90;;;;;;5033207;28;20037;-66
2022/06/11 00:53:52;;;;;;;8.63;2.75;;;15.30;99.90;;;;;;5032857;28;20053;-66
2022/06/11 00:56:44;;;;;;;12.95;3.47;;;15.20;99.90;;;;;;5033710;28;20045;-66
2022/06/11 00:59:13;;;;;;;13.05;3.92;;;;;;;;;;5033359;28;20045;-66
2022/06/11 01:01:39;;;;;;;9.63;3.25;;;;;;;;;;5034154;28;20446;-66
2022/06/11 01:04:32;;;;;;;10.02;3.30;;;;;;;;;;5034002;28;20088;-66
2022/06/11 01:07:00;;;;;;;12.73;3.45;;;;;;;;;;5030187;28;20107;-66
2022/06/11 01:09:56;;;;;;;10.57;3.47;;;15.60;99.90;;;;;;5033925;28;20037;-66
2022/06/11 01:12:27;;;;;;;;;;;15.40;99.90;;;;;;5034043;28;20049;-66
2022/06/11 01:15:13;;;;;;;12.43;3.20;;;15.10;99.90;;;;;;5031906;28;19928;-66
2022/06/11 01:17:45;;;;;;;12.55;3.15;;;;;;;;;;5033459;28;20375;-66
2022/06/11 01:20:12;;;;;;;15.80;4.20;;;;;;;;;;5034375;28;20033;-66
2022/06/11 01:22:38;;;;;;;12.02;3.03;;;;;;;;;;5032633;28;20490;-66
2022/06/11 01:25:11;;;;;;;8.93;2.80;;;;;;;;;;5032620;28;20095;-66
2022/06/11 01:27:44;;;;;;;8.82;2.90;;;;;;;;;;5033413;28;20064;-66
2022/06/11 01:30:41;;;;;;;10.43;3.53;;;14.90;99.90;;;;;;5032080;28;20065;-66
2022/06/11 01:33:16;;;;;;;14.45;3.15;;;15.00;99.90;;;;;;5032630;28;20077;-66
2022/06/11 01:35:48;;;;;;;;;;;14.90;99.90;;;;;;5032467;28;20133;-66
2022/06/11 01:38:32;;;;;;;13.73;3.92;;;14.80;99.90;;;;;;5032949;28;19937;-66
2022/06/11 01:41:37;;;;;;;11.02;3.35;;;14.80;99.90;;;;;;5032300;28;20120;-66
2022/06/11 01:44:10;;;;;;;9.43;4.00;;;;;;;;;;5032410;28;20521;-66
2022/06/11 01:46:38;;;;;;;12.35;4.03;;;;;;;;;;5033818;28;20505;-66
2022/06/11 01:49:06;;;;;;;14.10;3.60;;;;;;;;;;5032318;28;20488;-66
2022/06/11 01:51:51;;;;;;;12.88;4.10;;;;;;;;;;5032116;28;20498;-66
2022/06/11 01:54:17;;;;;;;11.95;3.30;;;;;;;;;;5033858;28;20042;-66
2022/06/11 01:56:43;;;;;;;10.70;3.13;;;;;;;;;;5032544;28;20099;-66
2022/06/11 01:59:15;;;;;;;11.40;3.65;;;;;;;;;;5015928;28;20435;-66
2022/06/11 02:02:01;;;;;;;13.55;3.78;;;;;;;;;;5032339;28;20083;-66
2022/06/11 02:04:27;;;;;;;;;;;;;;;;;;5032259;28;20088;-66
2022/06/11 02:07:05;;;;;;;16.00;3.88;;;;;;;;;;5031857;28;19957;-66
2022/06/11 02:09:50;;;;;;;12.20;3.75;;;;;;;;;;5032556;28;20461;-66
2022/06/11 02:12:28;;;;;;;11.05;3.30;;;;;;;;;;5031743;28;20077;-66
2022/06/11 02:15:03;;;;;;;14.77;3.58;;;;;;;;;;5015216;28;20045;-66
2022/06/11 02:17:31;;;;;;;;;;;14.60;99.90;;;;;;5033766;28;20041;-66
2022/06/11 02:20:05;;;;;;;10.20;3.40;;;14.50;99.90;;;;;;5032650;28;20294;-66
2022/06/11 02:22:43;;;;;;;16.10;3.75;;;14.50;99.90;;;;;;5032463;28;20124;-65
2022/06/11 02:25:16;;;;;;;11.10;4.05;;;14.40;99.90;;;;;;5032259;28;20132;-66
2022/06/11 02:27:44;;;;;;;10.65;3.92;;;14.40;99.90;;;;;;5032213;28;20041;-66
2022/06/11 02:30:14;;;;;;;13.82;4.20;;;14.40;99.90;;;;;;5032566;28;20061;-66
2022/06/11 02:32:40;;;;;;;12.65;3.72;;;14.40;99.90;;;;;;5014927;28;20068;-65
2022/06/11 02:35:08;;;;;;;12.13;3.88;;;;;;;;;;5031404;28;20506;-65
2022/06/11 02:37:45;;;;;;;11.27;4.25;;;14.60;99.90;;;;;;5032034;28;20398;-66
2022/06/11 02:40:41;;;;;;;12.63;3.53;;;14.50;99.90;;;;;;5032054;28;20092;-66
2022/06/11 02:43:07;;;;;;;13.35;3.90;;;14.40;99.90;;;;;;5029650;28;20506;-66
2022/06/11 02:45:33;;;;;;;8.63;3.17;;;14.30;99.90;;;;;;5032850;28;20080;-66
2022/06/11 02:47:58;;;;;;;13.02;4.47;;;14.30;99.90;;;;;;5030602;28;20425;-66
2022/06/11 02:50:28;;;;;;;13.25;3.50;;;14.30;99.90;;;;;;5032893;28;20042;-66
2022/06/11 02:52:57;;;;;;;10.48;3.90;;;14.30;99.90;;;;;;5030093;28;20106;-66
2022/06/11 02:55:23;;;;;;;15.50;4.53;;;14.30;99.90;;;;;;5015065;28;20083;-66
2022/06/11 02:57:49;;;;;;;11.00;3.05;;;14.30;99.90;;;;;;5030934;28;20502;-66
2022/06/11 03:00:20;;;;;;;12.60;4.15;;;14.30;99.90;;;;;;5031908;28;20040;-66
2022/06/11 03:02:48;;;;;;;17.40;4.53;;;14.30;99.90;;;;;;5014815;28;20045;-66
2022/06/11 03:05:16;;;;;;;9.70;4.07;;;14.30;99.90;;;;;;5032608;28;20046;-66
2022/06/11 03:07:42;;;;;;;18.80;5.13;;;14.40;99.90;;;;;;5031716;28;20497;-66
2022/06/11 03:10:08;;;;;;;14.85;3.55;;;14.40;99.90;;;;;;5032480;28;20041;-66
2022/06/11 03:12:35;;;;;;;10.63;3.35;;;14.50;99.90;;;;;;5031433;28;20051;-66
2022/06/11 03:15:00;;;;;;;11.55;3.40;;;14.50;99.90;;;;;;5031096;28;20042;-66
2022/06/11 03:17:28;;;;;;;16.38;4.38;;;14.50;99.90;;;;;;5031056;28;20079;-66
2022/06/11 03:19:54;;;;;;;13.98;4.18;;;14.60;99.90;;;;;;5030783;28;20048;-66
2022/06/11 03:22:20;;;;;;;11.50;4.25;;;14.90;99.90;;;;;;5030386;28;20116;-66
2022/06/11 03:24:46;;;;;;;17.05;4.47;;;14.50;99.90;;;;;;5030798;28;20110;-66
2022/06/11 03:27:13;;;;;;;14.95;4.80;;;14.50;99.90;;;;;;5030642;28;20033;-66
2022/06/11 03:29:39;;;;;;;13.30;3.70;;;14.90;99.90;;;;;;5030138;28;20068;-66
2022/06/11 03:32:05;;;;;;;14.73;5.03;;;14.70;99.90;;;;;;5030678;28;20042;-66
2022/06/11 03:34:31;;;;;;;14.75;4.65;;;14.50;99.90;;;;;;5035682;28;20120;-66
2022/06/11 03:36:57;;;;;;;17.88;4.68;;;14.80;99.90;;;;;;5036200;28;20145;-66
2022/06/11 03:39:23;;;;;;;13.88;3.85;;;14.50;99.90;;;;;;5038765;28;20034;-66
2022/06/11 03:41:50;;;;;;;16.25;4.88;;;14.70;99.90;;;;;;5036865;28;20049;-66
2022/06/11 03:44:17;;;;;;;18.27;4.47;;;14.70;99.90;;;;;;5037952;28;20152;-66
2022/06/11 03:46:43;;;;;;;15.43;4.55;;;14.70;99.90;;;;;;5037569;28;20049;-66
2022/06/11 03:49:09;;;;;;;17.35;4.45;;;14.80;99.90;;;;;;5036585;28;20384;-66
2022/06/11 03:51:34;;;;;;;15.38;3.90;;;14.70;99.90;;;;;;5038946;28;20037;-66
2022/06/11 03:54:00;;;;;;;19.48;4.18;;;14.90;99.90;;;;;;5036794;28;20041;-66
2022/06/11 03:56:27;;;;;;;15.52;4.68;;;14.70;99.90;;;;;;5037974;28;20038;-65
2022/06/11 03:58:53;;;;;;;14.90;4.22;;;14.70;99.90;;;;;;5038096;28;20037;-66
2022/06/11 04:01:19;;;;;;;16.85;4.63;;;14.70;99.90;;;;;;5038660;28;20091;-66
2022/06/11 04:03:57;;;;;;;12.40;4.40;;;14.70;99.90;;;;;;5036323;28;20045;-66
2022/06/11 04:06:32;;;;;;;12.55;3.90;;;15.00;99.90;;;;;;5037433;28;20038;-66
2022/06/11 04:08:58;;;;;;;17.80;4.78;;;14.80;99.90;;;;;;5038114;28;20107;-66
2022/06/11 04:11:24;;;;;;;16.92;4.97;;;14.80;99.90;;;;;;5036639;28;20119;-66
2022/06/11 04:13:51;;;;;;;16.38;5.22;;;14.90;99.90;;;;;;5036676;28;20033;-66
2022/06/11 04:16:28;;;;;;;17.48;6.03;;;14.90;99.90;;;;;;5038157;28;20037;-66
2022/06/11 04:18:55;;;;;;;11.23;4.28;;;14.90;99.90;;;;;;5037266;28;20045;-66
2022/06/11 04:21:22;;;;;;;14.90;5.38;;;14.90;99.90;;;;;;5037175;28;20038;-66
2022/06/11 04:23:51;;;;;;;19.20;5.45;;;15.00;99.90;;;;;;5038243;28;20033;-66
2022/06/11 04:26:21;;;;;;;14.63;4.60;;;14.90;99.90;;;;;;5037315;28;20033;-65
2022/06/11 04:28:48;;;;;;;13.90;4.00;;;14.90;99.90;;;;;;5038042;28;20483;-65
2022/06/11 04:31:15;;;;;;;17.75;5.25;;;15.00;99.90;;;;;;5036057;28;20089;-66
2022/06/11 04:33:43;;;;;;;15.32;5.65;;;15.00;99.90;;;;;;5038469;28;20041;-65
2022/06/11 04:36:09;;;;;;;16.65;5.05;;;15.00;99.90;;;;;;5036886;28;20053;-65
2022/06/11 04:38:34;;;;;;;19.67;6.63;;;15.00;99.90;;;;;;5036310;28;20034;-65
2022/06/11 04:41:00;;;;;;;13.23;4.07;;;15.00;99.90;;;;;;5036691;28;20068;-66
2022/06/11 04:43:26;;;;;;;21.13;5.75;;;15.10;99.90;;;;;;5036849;28;20049;-65
2022/06/11 04:45:52;;;;;;;15.10;4.93;;;15.10;99.90;;;;;;5033927;28;20065;-65
2022/06/11 04:48:17;;;;;;;16.05;5.45;;;15.10;99.90;;;;;;5035291;28;20444;-65
2022/06/11 04:50:43;;;;;;;17.58;4.95;;;15.10;99.90;;;;;;5034956;28;20560;-66
2022/06/11 04:53:09;;;;;;;23.50;6.78;;;15.10;99.90;;;;;;5032796;28;20049;-65
2022/06/11 04:55:35;;;;;;;15.60;5.00;;;15.20;99.90;;;;;;5033637;28;20076;-65
2022/06/11 04:58:01;;;;;;;20.70;5.32;;;15.20;99.90;;;;;;5033152;28;20041;-65
2022/06/11 05:00:30;;;;;;;16.70;5.40;;;15.20;99.90;;;;;;5032890;28;20040;-65
2022/06/11 05:02:56;;;;;;;19.70;5.28;;;;;;;;;;5033175;28;20045;-66
2022/06/11 05:05:23;;;;;;;22.92;5.43;;;;;;;;;;5034945;28;20048;-66
2022/06/11 05:07:49;;;;;;;19.88;5.38;;;;;;;;;;5032371;28;20049;-66
2022/06/11 05:10:19;;;;;;;14.30;4.50;;;;;;;;;;5034621;28;20053;-66
2022/06/11 05:12:45;;;;;;;17.70;5.20;;;15.70;99.90;;;;;;5033013;28;20100;-66
2022/06/11 05:15:11;;;;;;;14.65;5.47;;;15.70;99.90;;;;;;5032194;28;20077;-66
2022/06/11 05:17:37;;;;;;;24.38;6.30;;;15.70;99.90;;;;;;5034544;28;20045;-66
2022/06/11 05:20:04;;;;;;;25.83;6.20;;;15.80;99.90;;;;;;5016414;28;20219;-66
2022/06/11 05:22:29;;;;;;;18.92;6.18;;;15.80;99.90;;;;;;5033648;28;20501;-65
2022/06/11 05:24:55;;;;;;;14.80;5.72;;;15.90;99.90;;;;;;5033710;28;20042;-65
2022/06/11 05:27:24;;;;;;;19.27;5.88;;;15.90;99.90;;;;;;5032980;28;20045;-66
2022/06/11 05:30:00;;;;;;;20.83;5.82;;;16.00;99.90;;;;;;5032028;28;20065;-66
2022/06/11 05:32:30;;;;;;;19.25;6.35;;;16.10;99.90;;;;;;5037854;28;20453;-65
2022/06/11 05:34:57;;;;;;;22.02;6.82;;;16.10;99.90;;;;;;5051678;28;20482;-65
2022/06/11 05:37:23;;;;;;;22.70;5.82;;;16.30;99.90;;;;;;5053377;28;20037;-65
2022/06/11 05:39:51;;;;;;;23.65;6.22;;;;;;;;;;5051928;28;20041;-66
2022/06/11 05:42:19;;;;;;;22.17;6.38;;;16.60;99.90;;;;;;5053403;28;20072;-66
2022/06/11 05:44:45;;;;;;;19.95;6.80;;;16.40;99.90;;;;;;5047934;28;20052;-66
2022/06/11 05:47:15;;;;;;;23.35;7.38;;;16.60;99.90;;;;;;5031328;28;20128;-66
2022/06/11 05:49:45;;;;;;;19.77;6.10;;;16.70;99.90;;;;;;5029429;28;20095;-66
2022/06/11 05:52:18;;;;;;;25.73;6.78;;;16.80;99.90;;;;;;5029649;28;20045;-66
2022/06/11 05:54:46;;;;;;;21.20;7.47;;;16.90;99.90;;;;;;5029714;28;20049;-66
2022/06/11 05:57:14;;;;;;;20.35;7.05;;;16.90;99.90;;;;;;5028191;28;20049;-66
2022/06/11 05:59:43;;;;;;;21.65;6.60;;;;;;;;;;5033213;28;20033;-66
2022/06/11 06:02:10;;;;;;;21.20;7.45;;;;;;;;;;5049284;28;20055;-66
2022/06/11 06:04:37;;;;;;;21.33;7.65;;;;;;;;;;5032218;28;20227;-66
2022/06/11 06:07:05;;;;;;;18.10;6.43;;;;;;;;;;5032410;28;20049;-66
2022/06/11 06:09:31;;;;;;;19.50;6.47;;;;;;;;;;5032755;28;20367;-66
2022/06/11 06:11:57;;;;;;;23.52;6.95;;;;;;;;;;5031460;28;20098;-66
2022/06/11 06:14:23;;;;;;;23.85;6.35;;;;;;;;;;5026758;28;20037;-66
2022/06/11 06:16:49;;;;;;;19.10;6.47;;;;;;;;;;5033120;28;20047;-66
2022/06/11 06:19:14;;;;;;;27.38;7.15;;;17.60;99.90;;;;;;5046477;28;20037;-66
2022/06/11 06:21:40;;;;;;;21.83;6.53;;;17.60;99.90;;;;;;5032241;28;20052;-66
2022/06/11 06:24:10;;;;;;;27.77;6.32;;;;;;;;;;5041437;28;20053;-66
2022/06/11 06:26:36;;;;;;;21.58;6.55;;;;;;;;;;5030570;28;20057;-66
2022/06/11 06:29:04;;;;;;;21.10;6.65;;;;;;;;;;5036035;28;20127;-65
2022/06/11 06:31:30;;;;;;;19.52;6.53;;;;;;;;;;5018343;28;20147;-66
2022/06/11 06:34:01;;;;;;;23.15;7.53;;;;;;;;;;5027490;28;20491;-66
2022/06/11 06:36:30;;;;;;;21.50;6.63;;;;;;;;;;5033843;28;20045;-66
2022/06/11 06:38:56;;;;;;;24.77;6.72;;;;;;;;;;5034164;28;20481;-66
2022/06/11 06:41:22;;;;;;;20.80;7.03;;;18.20;99.90;;;;;;5048424;28;20050;-66
2022/06/11 06:43:48;;;;;;;23.42;6.88;;;18.10;99.90;;;;;;5045724;28;20055;-66
2022/06/11 06:46:15;;;;;;;22.02;6.30;;;18.20;99.90;;;;;;5026293;28;20402;-66
2022/06/11 06:48:43;;;;;;;18.98;6.50;;;18.30;99.90;;;;;;5045984;28;20570;-67
2022/06/11 06:51:10;;;;;;;24.40;6.32;;;18.30;99.90;;;;;;5022900;28;20080;-67
2022/06/11 06:54:10;;;;;;;27.73;6.00;;;18.30;99.90;;;;;;5048932;28;20052;-67
2022/06/11 06:56:36;;;;;;;16.95;4.50;;;18.40;99.90;;;;;;5038729;28;20045;-66
2022/06/11 06:59:03;;;;;;;16.70;4.88;;;18.30;99.90;;;;;;5049311;28;20386;-65
2022/06/11 07:01:30;;;;;;;16.92;4.53;;;18.30;99.90;;;;;;5051932;28;20079;-66
2022/06/11 07:03:57;;;;;;;14.25;4.97;;;18.30;99.90;;;;;;5051407;28;20114;-66
2022/06/11 07:06:23;;;;;;;15.30;4.78;;;18.40;99.90;;;;;;5047026;28;20402;-66
2022/06/11 07:08:51;;;;;;;20.02;5.90;;;18.30;99.90;;;;;;5051173;28;20544;-66
2022/06/11 07:11:16;;;;;;;17.42;5.20;;;18.30;99.90;;;;;;5052184;28;20513;-65
2022/06/11 07:13:42;;;;;;;17.55;4.70;;;18.40;99.90;;;;;;5050326;28;20045;-66
2022/06/11 07:16:09;;;;;;;25.15;5.97;;;18.50;99.90;;;;;;5050577;28;20139;-66
2022/06/11 07:18:42;;;;;;;15.65;4.75;;;18.50;99.90;;;;;;5052334;28;20111;-66
2022/06/11 07:21:13;;;;;;;18.95;5.63;;;18.60;99.90;;;;;;5049966;28;20049;-66
2022/06/11 07:24:01;;;;;;;16.52;4.55;;;18.60;99.90;;;;;;5051228;28;20103;-66
2022/06/11 07:26:40;;;;;;;14.57;5.13;;;18.50;99.90;;;;;;5031008;28;20121;-66
2022/06/11 07:29:30;;;;;;;17.98;4.90;;;18.40;99.90;;;;;;5029618;28;20125;-65
2022/06/11 07:32:02;;;;;;;18.85;4.68;;;18.50;99.90;;;;;;5030415;28;20048;-66
2022/06/11 07:34:28;;;;;;;19.25;5.00;;;18.40;99.90;;;;;;5013446;28;20042;-66
2022/06/11 07:36:56;;;;;;;19.00;5.55;;;18.50;99.90;;;;;;5031571;28;20037;-65
2022/06/11 07:39:21;;;;;;;15.98;5.03;;;18.60;99.90;;;;;;5030737;28;20048;-66
2022/06/11 07:41:47;;;;;;;18.13;5.03;;;18.70;99.90;;;;;;5049614;28;20041;-66
2022/06/11 07:44:13;;;;;;;17.58;4.88;;;18.80;99.90;;;;;;5043445;28;20033;-66
2022/06/11 07:46:38;;;;;;;16.50;4.60;;;18.80;99.90;;;;;;5051617;28;20076;-66
2022/06/11 07:49:04;;;;;;;12.93;4.25;;;18.80;99.90;;;;;;5049184;28;20041;-66
2022/06/11 07:51:30;;;;;;;14.20;4.40;;;18.80;99.90;;;;;;5049288;28;20482;-66
2022/06/11 07:53:55;;;;;;;17.45;5.15;;;18.70;99.90;;;;;;5035147;28;20036;-66
2022/06/11 07:56:21;;;;;;;15.80;5.78;;;18.80;99.90;;;;;;5048159;28;20045;-66
2022/06/11 07:58:49;;;;;;;20.88;5.05;;;18.80;99.90;;;;;;5051309;28;20037;-66
2022/06/11 08:01:15;;;;;;;17.80;5.53;;;18.90;99.90;;;;;;5038424;28;20029;-66
2022/06/11 08:03:41;;;;;;;16.08;5.65;;;19.10;99.90;;;;;;5030736;28;20042;-66
2022/06/11 08:06:08;;;;;;;15.70;3.83;;;19.10;99.90;;;;;;5031200;28;20045;-66
2022/06/11 08:08:34;;;;;;;14.18;4.57;;;19.10;99.90;;;;;;5039495;28;20493;-66
2022/06/11 08:11:01;;;;;;;14.73;5.18;;;19.10;99.90;;;;;;5035496;28;20045;-66
2022/06/11 08:13:27;;;;;;;16.88;4.97;;;19.20;99.90;;;;;;5049021;28;20068;-67
2022/06/11 08:15:54;;;;;;;21.50;5.40;;;19.40;99.90;;;;;;5049816;28;20037;-67
2022/06/11 08:18:22;;;;;;;16.77;4.45;;;19.40;99.90;;;;;;5045687;28;20549;-67
2022/06/11 08:20:49;;;;;;;14.88;4.07;;;19.30;99.90;;;;;;5031724;28;20482;-67
2022/06/11 08:23:15;;;;;;;13.98;4.45;;;19.10;99.90;;;;;;5035938;28;20045;-66
2022/06/11 08:25:41;;;;;;;15.60;4.80;;;19.10;99.90;;;;;;5034286;28;20497;-66
2022/06/11 08:28:10;;;;;;;13.65;3.83;;;19.10;99.90;;;;;;5038291;28;20166;-67
2022/06/11 08:30:36;;;;;;;11.50;3.63;;;19.10;99.90;;;;;;5050166;28;20053;-66
2022/06/11 08:33:02;;;;;;;13.13;3.85;;;19.40;99.90;;;;;;5052037;28;20850;-66
2022/06/11 08:35:30;;;;;;;16.05;4.10;;;19.50;99.90;;;;;;5046672;28;20041;-66
2022/06/11 08:37:56;;;;;;;13.30;4.88;;;19.40;99.90;;;;;;5042647;28;20547;-65
2022/06/11 08:40:21;;;;;;;12.15;3.40;;;19.50;99.90;;;;;;5036984;28;20041;-65
2022/06/11 08:42:57;;;;;;;13.73;4.40;;;19.50;99.90;;;;;;5053696;28;20059;-64
2022/06/11 08:45:37;;;;;;;13.10;3.72;;;19.50;99.90;;;;;;5026298;28;20047;-66
2022/06/11 08:48:12;;;;;;;11.95;3.72;;;19.50;99.90;;;;;;5049814;28;20049;-66
2022/06/11 08:50:43;;;;;;;15.13;4.43;;;19.50;99.90;;;;;;5048792;28;20045;-66
2022/06/11 08:53:09;;;;;;;17.60;5.32;;;19.50;99.90;;;;;;5054341;28;20145;-66
2022/06/11 08:55:38;;;;;;;15.15;3.92;;;19.40;99.90;;;;;;5053651;28;20459;-65
2022/06/11 08:58:30;;;;;;;14.02;5.30;;;19.40;99.90;;;;;;5054490;28;20041;-66
2022/06/11 09:01:21;;;;;;;10.40;2.95;;;19.50;99.90;;;;;;5050411;28;20040;-66
2022/06/11 09:04:14;;;;;;;11.20;3.50;;;19.60;99.90;;;;;;5053229;28;20045;-66
2022/06/11 09:07:10;;;;;;;16.60;3.90;;;19.50;99.90;;;;;;5036603;28;20048;-66
2022/06/11 09:09:53;;;;;;;15.35;3.15;;;19.50;99.90;;;;;;5053465;28;20513;-66
2022/06/11 09:12:45;;;;;;;13.63;3.38;;;19.40;99.90;;;;;;5053450;28;20044;-65
2022/06/11 09:15:48;;;;;;;11.15;3.80;;;19.40;99.90;;;;;;5036235;28;20051;-66
2022/06/11 09:18:16;;;;;;;18.08;4.93;;;19.40;99.90;;;;;;5034717;28;20168;-65
2022/06/11 09:21:00;;;;;;;9.88;3.47;;;19.40;99.90;;;;;;5032966;28;20080;-66
2022/06/11 09:23:50;;;;;;;12.20;3.63;;;19.50;99.90;;;;;;5034733;28;20463;-66
2022/06/11 09:26:22;;;;;;;11.20;3.58;;;19.60;99.90;;;;;;5043415;28;20052;-66
2022/06/11 09:29:03;;;;;;;10.93;3.47;;;19.70;99.90;;;;;;5052241;28;20045;-66
2022/06/11 09:31:42;;;;;;;10.52;2.97;;;19.70;99.90;;;;;;5053634;28;20148;-66
2022/06/11 09:34:12;;;;;;;12.45;3.47;;;19.60;99.90;;;;;;5053355;28;20053;-66
2022/06/11 09:37:04;;;;;;;11.48;2.90;;;19.60;99.90;;;;;;5036320;28;20057;-67
2022/06/11 09:39:42;;;;;;;16.10;4.20;;;19.70;99.90;;;;;;5020054;28;20438;-66
2022/06/11 09:42:36;;;;;;;16.05;3.40;;;19.70;99.90;;;;;;5051840;28;20091;-66
2022/06/11 09:45:09;;;;;;;8.55;3.20;;;19.70;99.90;;;;;;5035455;28;20151;-66
2022/06/11 09:48:10;;;;;;;9.73;3.20;;;19.60;99.90;;;;;;5052934;28;20485;-66
2022/06/11 09:51:17;;;;;;;8.50;2.55;;;19.70;99.90;;;;;;5046171;28;20040;-66
2022/06/11 09:54:15;;;;;;;11.32;3.72;;;19.80;99.90;;;;;;5051170;28;20057;-66
2022/06/11 09:57:06;;;;;;;10.20;2.90;;;19.90;99.90;;;;;;5032764;28;20052;-66
2022/06/11 09:59:41;;;;;;;8.48;2.72;;;20.00;99.90;;;;;;5032724;28;20069;-66
2022/06/11 10:02:07;;;;;;;13.48;3.35;;;20.00;99.90;;;;;;5015061;28;20079;-66
2022/06/11 10:04:40;;;;;;;11.35;3.67;;;20.00;99.90;;;;;;5033864;28;20081;-66
2022/06/11 10:07:19;;;;;;;12.27;3.50;;;20.00;99.90;;;;;;5032124;28;20042;-66
2022/06/11 10:10:13;;;;;;;10.55;2.97;;;20.00;99.90;;;;;;5041233;28;20040;-66
2022/06/11 10:12:54;;;;;;;11.68;4.20;;;20.10;99.90;;;;;;5052456;28;20052;-66
2022/06/11 10:15:27;;;;;;;14.40;3.65;;;20.10;99.90;;;;;;5052277;28;20048;-66
2022/06/11 10:18:00;;;;;;;16.88;3.45;;;20.10;99.90;;;;;;5052391;28;20044;-66
2022/06/11 10:20:28;;;;;;;13.15;3.42;;;20.10;99.90;;;;;;5053792;28;20041;-66
2022/06/11 10:23:08;;;;;;;7.68;3.00;;;;;;;;;;5049751;28;20037;-67
2022/06/11 10:25:53;;;;;;;12.93;3.20;;;20.40;99.90;;;;;;5041499;28;20042;-64
2022/06/11 10:28:19;;;;;;;;;;;;;;;;;;5032691;28;20049;-66
2022/06/11 10:31:02;;;;;;;10.93;3.28;;;20.40;99.90;;;;;;5031994;28;19974;-66
2022/06/11 10:33:36;;;;;;;12.20;2.95;;;20.50;99.90;;;;;;5031944;28;20433;-66
2022/06/11 10:36:29;;;;;;;13.55;3.38;;;20.60;99.90;;;;;;5031598;28;20041;-66
2022/06/11 10:39:11;;;;;;;13.35;3.72;;;20.60;98.90;;;;;;5027320;28;20057;-66
2022/06/11 10:41:54;;;;;;;16.95;9.95;;;20.60;99.80;;;;;;5015314;28;20504;-66
2022/06/11 10:44:29;;;;;;;12.25;4.40;;;20.50;99.90;;;;;;5031505;28;20049;-66
2022/06/11 10:46:56;;;;;;;11.38;3.20;;;20.80;99.90;;;;;;5031432;28;20045;-66
2022/06/11 10:49:23;;;;;;;16.38;3.85;;;20.60;99.90;;;;;;5031579;28;20052;-66
2022/06/11 10:52:08;;;;;;;11.25;3.05;;;20.80;99.90;;;;;;5030617;28;20600;-66
2022/06/11 10:54:34;;;;;;;14.63;3.40;;;20.90;98.70;;;;;;5032869;28;20037;-66
2022/06/11 10:57:12;;;;;;;11.32;3.70;;;21.10;99.90;;;;;;5030812;28;20052;-66
2022/06/11 10:59:45;;;;;;;12.80;3.15;;;21.00;99.90;;;;;;5014538;28;20037;-66
2022/06/11 11:02:18;;;;;;;10.20;2.50;;;;;;;;;;5031179;28;20044;-67
2022/06/11 11:04:57;;;;;;;11.05;3.28;;;;;;;;;;5031048;28;20041;-66
2022/06/11 11:07:28;;;;;;;10.15;2.85;;;;;;;;;;5030546;28;20487;-66
2022/06/11 11:09:58;;;;;;;11.43;3.40;;;20.80;99.90;;;;;;5030826;28;20048;-67
2022/06/11 11:12:32;;;;;;;9.02;2.50;;;;;;;;;;5031775;28;20371;-67
2022/06/11 11:15:00;;;;;;;10.63;3.13;;;;;;;;;;5030900;28;20045;-66
2022/06/11 11:17:28;;;;;;;12.10;3.15;;;;;;;;;;5031375;28;20045;-66
2022/06/11 11:22:42;;;;;;;8.95;2.75;;;;;;;;;;5039310;28;20051;-67
2022/06/11 11:25:17;;;;;;;9.65;2.63;;;21.10;99.90;;;;;;5048794;28;20048;-66
2022/06/11 11:27:47;;;;;;;8.75;2.90;;;21.20;99.90;;;;;;5047816;28;20129;-66
2022/06/11 11:30:15;;;;;;;11.60;2.67;;;21.10;94.50;;;;;;5039191;28;20155;-65
2022/06/11 11:32:43;;;;;;;9.65;2.95;;;21.10;93.30;;;;;;5052380;28;20128;-64
2022/06/11 11:35:16;;;;;;;10.43;3.22;;;21.10;93.20;;;;;;5050987;28;20049;-66
2022/06/11 11:37:42;;;;;;;10.65;2.67;;;21.20;93.40;;;;;;5040013;28;20042;-68
2022/06/11 11:40:25;;;;;;;12.25;3.17;;;21.20;93.50;;;;;;5030920;28;20037;-67
2022/06/11 11:42:57;;;;;;;9.50;2.35;;;21.20;93.70;;;;;;5014218;28;20455;-65
2022/06/11 11:45:25;;;;;;;10.32;2.90;;;;;;;;;;5033926;28;20109;-64
2022/06/11 11:47:54;;;;;;;8.32;2.42;;;21.60;95.70;;;;;;5026646;28;20130;-63
2022/06/11 11:50:27;;;;;;;9.85;2.63;;;21.60;94.00;;;;;;5050748;28;20103;-62
2022/06/11 11:53:01;;;;;;;8.93;2.58;;;21.60;94.80;;;;;;5050772;28;20114;-65
2022/06/11 11:55:33;;;;;;;9.83;3.27;;;21.50;91.00;;;;;;5039968;28;20445;-67
2022/06/11 11:58:06;;;;;;;11.02;3.63;;;21.30;88.50;;;;;;5040243;28;20326;-67
2022/06/11 12:00:45;;;;;;;10.05;2.60;;;21.20;90.50;;;;;;5049793;28;20064;-67
2022/06/11 12:03:22;;;;;;;10.88;2.90;;;21.20;92.50;;;;;;5036484;28;20077;-67
2022/06/11 12:05:52;;;;;;;8.13;2.83;;;21.30;92.80;;;;;;5037408;28;20088;-67
2022/06/11 12:08:47;;;;;;;8.13;3.08;;;21.30;93.10;;;;;;5041135;28;20045;-67
2022/06/11 12:11:28;;;;;;;12.18;3.38;;;21.40;93.70;;;;;;5030133;28;20519;-67
2022/06/11 12:14:13;;;;;;;9.88;2.95;;;21.50;94.30;;;;;;5040885;28;20401;-67
2022/06/11 12:16:50;;;;;;;8.65;3.05;;;21.30;93.00;;;;;;5019598;28;20383;-67
2022/06/11 12:19:19;;;;;;;12.95;3.20;;;21.30;94.00;;;;;;5048830;28;20053;-67
2022/06/11 12:21:50;;;;;;;11.07;2.95;;;21.20;94.00;;;;;;5051279;28;20041;-67
2022/06/11 12:24:26;;;;;;;10.20;2.92;;;21.30;93.20;;;;;;5050969;28;20044;-67
2022/06/11 12:27:04;;;;;;;13.10;3.75;;;21.40;93.80;;;;;;5042926;28;20508;-67
2022/06/11 12:29:45;;;;;;;10.35;3.00;;;21.40;93.30;;;;;;5044888;28;20053;-67
2022/06/11 12:32:19;;;;;;;7.50;2.47;;;21.70;95.50;;;;;;5051014;28;20128;-67
2022/06/11 12:34:45;;;;;;;13.70;4.18;;;21.80;93.50;;;;;;5051140;28;20409;-67
2022/06/11 12:37:40;;;;;;;13.15;3.55;;;21.90;93.30;;;;;;5051119;28;20503;-67
2022/06/11 12:40:26;;;;;;;11.93;3.92;;;21.90;94.00;;;;;;5051379;28;20040;-67
2022/06/11 12:43:19;;;;;;;11.95;3.63;;;22.00;94.80;;;;;;5035893;28;20043;-67
2022/06/11 12:46:20;;;;;;;8.35;2.72;;;22.00;94.70;;;;;;5032942;28;20391;-67
2022/06/11 12:48:49;;;;;;;11.38;3.47;;;21.60;92.30;;;;;;5033017;28;20525;-66
2022/06/11 12:51:37;;;;;;;13.88;3.95;;;21.40;95.30;;;;;;5039867;28;20056;-66
2022/06/11 12:54:33;;;;;;;12.23;3.35;;;21.30;95.50;;;;;;5043296;28;20884;-66
2022/06/11 12:57:11;;;;;;;10.15;2.70;;;21.20;96.20;;;;;;5043635;28;20060;-66
2022/06/11 13:00:14;;;;;;;11.80;3.40;;;21.20;97.10;;;;;;5056347;28;20041;-66
2022/06/11 13:03:18;;;;;;;12.68;3.22;;;21.30;96.40;;;;;;5045404;28;20162;-66
2022/06/11 13:06:08;;;;;;;10.95;3.10;;;21.40;96.20;;;;;;5005046;28;20107;-66
2022/06/11 13:08:54;;;;;;;8.35;3.25;;;21.50;97.40;;;;;;5048853;28;20049;-66
2022/06/11 13:11:23;;;;;;;11.32;3.30;;;;;;;;;;5051207;28;20076;-66
2022/06/11 13:14:09;;;;;;;11.60;2.97;;;21.10;99.90;;;;;;5049309;28;20041;-67
2022/06/11 13:16:48;;;;;;;9.38;3.03;;;21.40;99.90;;;;;;5050599;28;20037;-66
2022/06/11 13:19:29;;;;;;;17.70;4.97;;;21.30;99.60;;;;;;5050321;28;20060;-67
2022/06/11 13:21:57;;;;;;;10.90;2.92;;;;;;;;;;5048907;28;20041;-67
2022/06/11 13:24:43;;;;;;;12.45;3.38;;;21.90;99.90;;;;;;5049999;28;20052;-66
2022/06/11 13:27:35;;;;;;;13.50;3.45;;;21.70;94.90;;;;;;5047446;28;20473;-66
2022/06/11 13:30:25;;;;;;;15.20;3.70;;;21.80;95.90;;;;;;5038207;28;20060;-66